Time;durP1;ratioP1;P1;durP2;ratioP2;P2;SDS_P1;SDS_P2;PMS_P1;PMS_P2;Temp;Humidity;BMP_temperature;BMP_pressure;BME280_temperature;BME280_humidity;BME280_pressure;Samples;Min_cycle;Max_cycle;Signal;HPM_P1;HPM_P2
2020/12/08 00:00:00;;;;;;;27.53;20.87;;;;;;;;;;2080343;28;20187;-61
2020/12/08 00:01:01;;;;;;;27.30;21.03;;;;;;;;;;2088126;28;20180;-59
2020/12/08 00:02:01;;;;;;;25.70;20.20;;;;;;;;;;2088566;28;20538;-60
2020/12/08 00:03:01;;;;;;;25.47;20.47;;;;;;;;;;2080421;28;20184;-60
2020/12/08 00:04:02;;;;;;;26.53;19.20;;;;;;;;;;2079642;28;20181;-60
2020/12/08 00:05:03;;;;;;;23.17;18.97;;;;;;;;;;2080185;28;20256;-61
2020/12/08 00:06:03;;;;;;;23.73;18.80;;;;;;;;;;2078076;28;20172;-60
2020/12/08 00:07:03;;;;;;;25.50;19.87;;;;;;;;;;2079229;28;20177;-58
2020/12/08 00:08:05;;;;;;;26.00;20.87;;;;;;;;;;2079076;28;20612;-60
2020/12/08 00:09:05;;;;;;;23.67;20.33;;;;;;;;;;2087135;28;20179;-60
2020/12/08 00:10:06;;;;;;;23.60;18.33;;;;;;;;;;2089140;28;20420;-60
2020/12/08 00:11:06;;;;;;;26.03;19.23;;;;;;;;;;2087148;28;20187;-60
2020/12/08 00:12:06;;;;;;;22.77;18.73;;;;;;;;;;2089342;28;20175;-59
2020/12/08 00:13:07;;;;;;;24.40;19.30;;;;;;;;;;2086608;28;20218;-61
2020/12/08 00:14:07;;;;;;;25.77;20.50;;;;;;;;;;2088555;28;20187;-59
2020/12/08 00:15:07;;;;;;;26.97;20.03;;;;;;;;;;2080850;28;20180;-57
2020/12/08 00:16:07;;;;;;;26.63;19.47;;;;;;;;;;2080026;28;20707;-57
2020/12/08 00:17:07;;;;;;;26.33;19.87;;;;;;;;;;2085484;28;20267;-57
2020/12/08 00:18:08;;;;;;;24.00;19.20;;;;;;;;;;2088514;28;20210;-58
2020/12/08 00:19:10;;;;;;;23.13;19.20;;;;;;;;;;2086406;28;20207;-60
2020/12/08 00:20:11;;;;;;;23.03;18.43;;;;;;;;;;2078884;28;20200;-60
2020/12/08 00:21:11;;;;;;;23.53;18.97;;;;;;;;;;2069494;28;20216;-58
2020/12/08 00:22:11;;;;;;;26.27;20.13;;;;;;;;;;2079133;28;20597;-57
2020/12/08 00:23:11;;;;;;;23.33;19.43;;;;;;;;;;2079076;28;20182;-57
2020/12/08 00:24:12;;;;;;;24.53;19.57;;;;;;;;;;2080444;28;20543;-58
2020/12/08 00:25:12;;;;;;;25.20;19.70;;;;;;;;;;2087883;28;20175;-56
2020/12/08 00:26:13;;;;;;;23.97;18.30;;;;;;;;;;2087778;28;20206;-58
2020/12/08 00:27:13;;;;;;;23.20;18.70;;;;;;;;;;2089021;28;20237;-56
2020/12/08 00:28:14;;;;;;;24.53;18.70;;;;;;;;;;2084857;28;20197;-58
2020/12/08 00:29:14;;;;;;;23.83;18.63;;;;;;;;;;2087792;28;20207;-58
2020/12/08 00:30:17;;;;;;;25.17;19.03;;;;;;;;;;2086700;28;20290;-59
2020/12/08 00:31:23;;;;;;;20.73;17.57;;;;;;;;;;2087945;28;20223;-58
2020/12/08 00:32:23;;;;;;;22.73;17.80;;;;;;;;;;2080015;28;21205;-55
2020/12/08 00:33:23;;;;;;;21.47;18.47;;;;;;;;;;2080131;28;20448;-57
2020/12/08 00:34:23;;;;;;;23.87;18.90;;;;;;;;;;2087966;28;20176;-59
2020/12/08 00:35:24;;;;;;;23.33;19.20;;;;;;;;;;2087514;28;20683;-59
2020/12/08 00:36:24;;;;;;;25.63;18.50;;;;;;;;;;2087653;28;20175;-58
2020/12/08 00:37:25;;;;;;;22.20;18.57;;;;;;;;;;2088848;28;20883;-57
2020/12/08 00:38:26;;;;;;;21.67;17.47;;;;;;;;;;2086070;28;20200;-58
2020/12/08 00:39:26;;;;;;;23.17;18.10;;;;;;;;;;2079843;28;20654;-56
2020/12/08 00:40:27;;;;;;;22.23;17.87;;;;;;;;;;2080042;28;20245;-59
2020/12/08 00:41:27;;;;;;;19.60;17.50;;;;;;;;;;2087346;28;20274;-56
2020/12/08 00:42:27;;;;;;;19.90;16.80;;;;;;;;;;2089198;28;20175;-57
2020/12/08 00:43:27;;;;;;;20.93;17.53;;;;;;;;;;2088568;28;21360;-57
2020/12/08 00:44:27;;;;;;;21.90;16.97;;;;;;;;;;2081802;28;20206;-53
2020/12/08 00:45:28;;;;;;;22.43;17.57;;;;;;;;;;2081742;28;20184;-54
2020/12/08 00:46:28;;;;;;;22.90;17.93;;;;;;;;;;2089924;28;20710;-57
2020/12/08 00:47:28;;;;;;;22.60;17.40;;;;;;;;;;2091173;28;20188;-57
2020/12/08 00:48:31;;;;;;;21.73;17.40;;;;;;;;;;2081373;28;20208;-52
2020/12/08 00:49:31;;;;;;;22.47;17.50;;;;;;;;;;2065649;28;20181;-55
2020/12/08 00:50:32;;;;;;;23.50;17.63;;;;;;;;;;2078294;28;20184;-52
2020/12/08 00:51:32;;;;;;;20.67;16.40;;;;;;;;;;2078386;28;20187;-53
2020/12/08 00:52:33;;;;;;;22.20;18.23;;;;;;;;;;2078813;28;20180;-58
2020/12/08 00:53:34;;;;;;;22.57;18.83;;;;;;;;;;2080157;28;20180;-60
2020/12/08 00:54:35;;;;;;;24.07;19.93;;;;;;;;;;2077625;28;20188;-59
2020/12/08 00:55:42;;;;;;;26.30;20.03;;;;;;;;;;2078951;28;20186;-58
2020/12/08 00:56:42;;;;;;;24.97;19.53;;;;;;;;;;2079783;28;20451;-60
2020/12/08 00:57:43;;;;;;;24.53;20.27;;;;;;;;;;2078938;28;20339;-62
2020/12/08 00:58:47;;;;;;;28.27;21.07;;;;;;;;;;2071275;28;20204;-58
2020/12/08 00:59:48;;;;;;;27.47;19.60;;;;;;;;;;2067963;28;20209;-58
2020/12/08 01:00:49;;;;;;;25.40;19.63;;;;;;;;;;2069066;28;20422;-59
2020/12/08 01:01:49;;;;;;;28.53;22.37;;;;;;;;;;2071452;28;20173;-60
2020/12/08 01:02:50;;;;;;;27.73;22.30;;;;;;;;;;2072176;28;20609;-60
2020/12/08 01:03:51;;;;;;;36.80;24.40;;;;;;;;;;2063476;28;20423;-59
2020/12/08 01:04:55;;;;;;;36.07;25.67;;;;;;;;;;2065094;28;20178;-59
2020/12/08 01:05:55;;;;;;;35.93;25.60;;;;;;;;;;2079536;28;20420;-59
2020/12/08 01:06:55;;;;;;;32.00;22.87;;;;;;;;;;2077598;28;20181;-58
2020/12/08 01:07:56;;;;;;;32.30;23.00;;;;;;;;;;2071143;28;20215;-57
2020/12/08 01:09:01;;;;;;;34.27;22.20;;;;;;;;;;2072098;28;20174;-59
2020/12/08 01:10:02;;;;;;;32.90;22.70;;;;;;;;;;2071333;28;21458;-58
2020/12/08 01:11:03;;;;;;;28.90;22.07;;;;;;;;;;2070969;28;20228;-58
2020/12/08 01:12:07;;;;;;;31.50;21.87;;;;;;;;;;2072228;28;20422;-57
2020/12/08 01:13:09;;;;;;;27.07;21.33;;;;;;;;;;2079234;28;20802;-59
2020/12/08 01:14:10;;;;;;;29.27;22.50;;;;;;;;;;2080055;28;20405;-59
2020/12/08 01:15:11;;;;;;;30.67;23.13;;;;;;;;;;2077785;28;20163;-60
2020/12/08 01:16:12;;;;;;;30.83;23.30;;;;;;;;;;2070901;28;20271;-59
2020/12/08 01:17:12;;;;;;;32.33;22.20;;;;;;;;;;2062857;28;20511;-59
2020/12/08 01:18:13;;;;;;;35.10;23.40;;;;;;;;;;2063369;28;20216;-59
2020/12/08 01:19:14;;;;;;;31.60;23.33;;;;;;;;;;2072605;28;20203;-58
2020/12/08 01:20:14;;;;;;;33.93;26.33;;;;;;;;;;2086942;28;20854;-59
2020/12/08 01:21:17;;;;;;;35.50;27.07;;;;;;;;;;2078517;28;20215;-60
2020/12/08 01:22:22;;;;;;;37.97;26.80;;;;;;;;;;2077892;28;20591;-59
2020/12/08 01:23:23;;;;;;;35.27;25.83;;;;;;;;;;2078703;28;20524;-60
2020/12/08 01:24:23;;;;;;;41.90;26.50;;;;;;;;;;2071823;28;20184;-60
2020/12/08 01:25:24;;;;;;;38.80;27.30;;;;;;;;;;2078066;28;20168;-58
2020/12/08 01:26:25;;;;;;;38.70;26.33;;;;;;;;;;2079434;28;20175;-56
2020/12/08 01:27:26;;;;;;;37.13;25.53;;;;;;;;;;2069978;28;20175;-57
2020/12/08 01:28:26;;;;;;;37.43;26.00;;;;;;;;;;2079385;28;20464;-53
2020/12/08 01:29:28;;;;;;;38.30;25.70;;;;;;;;;;2088073;28;20731;-61
2020/12/08 01:30:29;;;;;;;42.37;28.03;;;;;;;;;;2078715;28;20426;-56
2020/12/08 01:31:33;;;;;;;37.90;25.93;;;;;;;;;;2078685;28;20180;-59
2020/12/08 01:32:38;;;;;;;44.70;27.43;;;;;;;;;;2073142;28;20168;-59
2020/12/08 01:33:40;;;;;;;43.13;27.93;;;;;;;;;;2064418;28;20430;-60
2020/12/08 01:34:40;;;;;;;44.10;29.60;;;;;;;;;;2064146;28;20443;-59
2020/12/08 01:35:43;;;;;;;39.10;27.07;;;;;;;;;;2082201;28;20195;-60
2020/12/08 01:36:44;;;;;;;39.87;27.33;;;;;;;;;;2080518;28;21044;-57
2020/12/08 01:37:47;;;;;;;43.00;28.30;;;;;;;;;;2081977;28;20259;-59
2020/12/08 01:38:48;;;;;;;42.30;27.97;;;;;;;;;;2081914;28;20206;-58
2020/12/08 01:39:48;;;;;;;39.27;28.43;;;;;;;;;;2070591;28;20453;-59
2020/12/08 01:40:52;;;;;;;36.43;27.10;;;;;;;;;;2072923;28;20182;-59
2020/12/08 01:41:54;;;;;;;40.17;27.70;;;;;;;;;;2072083;28;20255;-59
2020/12/08 01:42:54;;;;;;;38.50;27.87;;;;;;;;;;2072108;28;20180;-59
2020/12/08 01:43:55;;;;;;;38.47;27.53;;;;;;;;;;2069182;28;20161;-54
2020/12/08 01:44:57;;;;;;;43.80;27.67;;;;;;;;;;2070236;28;20240;-57
2020/12/08 01:45:58;;;;;;;43.77;28.00;;;;;;;;;;2081120;28;20204;-59
2020/12/08 01:46:58;;;;;;;40.97;26.97;;;;;;;;;;2072652;28;20200;-59
2020/12/08 01:47:59;;;;;;;35.80;25.40;;;;;;;;;;2077621;28;20557;-60
2020/12/08 01:48:59;;;;;;;39.90;28.13;;;;;;;;;;2077356;28;20169;-59
2020/12/08 01:50:00;;;;;;;40.43;28.93;;;;;;;;;;2078560;28;20172;-60
2020/12/08 01:51:01;;;;;;;41.17;28.47;;;;;;;;;;2079472;28;20527;-59
2020/12/08 01:52:01;;;;;;;41.93;28.33;;;;;;;;;;2078625;28;20503;-59
2020/12/08 01:53:02;;;;;;;42.63;28.27;;;;;;;;;;2079637;28;20170;-58
2020/12/08 01:54:03;;;;;;;41.53;28.00;;;;;;;;;;2064085;28;20251;-59
2020/12/08 01:55:14;;;;;;;41.27;27.20;;;;;;;;;;2070705;28;20173;-57
2020/12/08 01:56:19;;;;;;;41.63;27.67;;;;;;;;;;2077546;28;20569;-58
2020/12/08 01:57:24;;;;;;;48.50;31.77;;;;;;;;;;2072382;28;20196;-58
2020/12/08 01:58:30;;;;;;;46.63;31.83;;;;;;;;;;2071918;28;20565;-59
2020/12/08 01:59:33;;;;;;;48.70;30.10;;;;;;;;;;2081893;28;20441;-60
2020/12/08 02:00:47;;;;;;;47.37;30.03;;;;;;;;;;2076819;28;20548;-60
2020/12/08 02:01:47;;;;;;;44.27;28.37;;;;;;;;;;2076687;28;20446;-59
2020/12/08 02:02:48;;;;;;;46.43;29.20;;;;;;;;;;2079047;28;20863;-60
2020/12/08 02:04:06;;;;;;;40.37;27.47;;;;;;;;;;2075029;28;20176;-60
2020/12/08 02:05:07;;;;;;;44.37;27.73;;;;;;;;;;2072379;28;21016;-54
2020/12/08 02:06:07;;;;;;;47.47;31.00;;;;;;;;;;2073872;28;20204;-60
2020/12/08 02:07:08;;;;;;;43.90;29.40;;;;;;;;;;2070526;28;20180;-59
2020/12/08 02:08:08;;;;;;;43.10;29.13;;;;;;;;;;2071862;28;20208;-60
2020/12/08 02:09:12;;;;;;;45.20;28.83;;;;;;;;;;2070923;28;20193;-58
2020/12/08 02:10:12;;;;;;;41.77;28.63;;;;;;;;;;2072685;28;20775;-61
2020/12/08 02:11:13;;;;;;;46.87;31.27;;;;;;;;;;2073296;28;20264;-58
2020/12/08 02:12:13;;;;;;;48.60;31.13;;;;;;;;;;2072629;28;20189;-60
2020/12/08 02:13:17;;;;;;;47.03;30.70;;;;;;;;;;2073133;28;20173;-58
2020/12/08 02:14:18;;;;;;;43.17;29.97;;;;;;;;;;2071658;28;20564;-59
2020/12/08 02:15:19;;;;;;;51.37;32.37;;;;;;;;;;2070358;28;20699;-59
2020/12/08 02:16:21;;;;;;;53.80;32.53;;;;;;;;;;2072571;28;20177;-56
2020/12/08 02:17:22;;;;;;;45.40;31.43;;;;;;;;;;2072252;28;20438;-61
2020/12/08 02:18:23;;;;;;;51.50;31.93;;;;;;;;;;2080567;28;20437;-61
2020/12/08 02:19:23;;;;;;;46.97;30.80;;;;;;;;;;2079554;28;20199;-61
2020/12/08 02:20:27;;;;;;;48.80;31.37;;;;;;;;;;2072527;28;20195;-60
2020/12/08 02:21:31;;;;;;;48.27;33.27;;;;;;;;;;2082594;28;20172;-59
2020/12/08 02:22:33;;;;;;;52.37;32.33;;;;;;;;;;2085707;28;20421;-59
2020/12/08 02:23:33;;;;;;;53.33;32.33;;;;;;;;;;2077937;28;20481;-59
2020/12/08 02:24:34;;;;;;;48.30;31.17;;;;;;;;;;2080516;28;20231;-59
2020/12/08 02:25:35;;;;;;;52.60;31.03;;;;;;;;;;2081251;28;20172;-59
2020/12/08 02:26:37;;;;;;;47.93;31.33;;;;;;;;;;2081496;28;20239;-59
2020/12/08 02:27:40;;;;;;;45.40;30.43;;;;;;;;;;2073008;28;20403;-59
2020/12/08 02:28:44;;;;;;;50.40;32.07;;;;;;;;;;2077218;28;20432;-59
2020/12/08 02:29:46;;;;;;;48.53;30.83;;;;;;;;;;2072843;28;20428;-59
2020/12/08 02:30:47;;;;;;;47.67;31.27;;;;;;;;;;2073761;28;20677;-59
2020/12/08 02:31:48;;;;;;;46.90;31.73;;;;;;;;;;2081034;28;20183;-60
2020/12/08 02:32:53;;;;;;;44.73;30.47;;;;;;;;;;2078476;28;20191;-60
2020/12/08 02:33:54;;;;;;;51.87;31.17;;;;;;;;;;2073310;28;20454;-57
2020/12/08 02:34:56;;;;;;;44.10;29.77;;;;;;;;;;2072448;28;20287;-60
2020/12/08 02:35:56;;;;;;;46.47;30.60;;;;;;;;;;2070049;28;20528;-61
2020/12/08 02:36:57;;;;;;;47.80;31.93;;;;;;;;;;2072535;28;20229;-60
2020/12/08 02:37:58;;;;;;;48.13;30.30;;;;;;;;;;2080161;28;20228;-58
2020/12/08 02:38:58;;;;;;;45.47;31.07;;;;;;;;;;2075567;28;20489;-60
2020/12/08 02:39:59;;;;;;;52.43;33.70;;;;;;;;;;2081495;28;20172;-59
2020/12/08 02:40:59;;;;;;;50.53;32.80;;;;;;;;;;2080711;28;20172;-60
2020/12/08 02:42:00;;;;;;;48.33;32.77;;;;;;;;;;2072779;28;20165;-60
2020/12/08 02:43:01;;;;;;;50.37;32.00;;;;;;;;;;2081129;28;20192;-59
2020/12/08 02:44:01;;;;;;;53.30;33.33;;;;;;;;;;2081590;28;20171;-60
2020/12/08 02:45:02;;;;;;;51.87;32.93;;;;;;;;;;2082432;28;20164;-60
2020/12/08 02:46:04;;;;;;;55.40;32.60;;;;;;;;;;2074046;28;20414;-60
2020/12/08 02:47:04;;;;;;;49.70;30.97;;;;;;;;;;2071914;28;20425;-59
2020/12/08 02:48:04;;;;;;;47.10;33.07;;;;;;;;;;2057093;28;20728;-59
2020/12/08 02:49:05;;;;;;;53.57;32.67;;;;;;;;;;2066007;28;20185;-59
2020/12/08 02:50:07;;;;;;;46.90;31.03;;;;;;;;;;2072161;28;20675;-59
2020/12/08 02:51:08;;;;;;;52.17;31.53;;;;;;;;;;2071008;28;20421;-60
2020/12/08 02:52:11;;;;;;;46.00;29.80;;;;;;;;;;2069635;28;20208;-60
2020/12/08 02:53:15;;;;;;;44.10;29.67;;;;;;;;;;2081123;28;20417;-59
2020/12/08 02:54:16;;;;;;;45.63;29.57;;;;;;;;;;2082070;28;20980;-58
2020/12/08 02:55:18;;;;;;;45.87;28.97;;;;;;;;;;2074361;28;20228;-59
2020/12/08 02:56:24;;;;;;;41.27;30.07;;;;;;;;;;2072499;28;20425;-59
2020/12/08 02:57:24;;;;;;;53.03;31.20;;;;;;;;;;2071708;28;20437;-58
2020/12/08 02:58:25;;;;;;;45.80;31.33;;;;;;;;;;2073676;28;20508;-59
2020/12/08 02:59:26;;;;;;;51.47;30.33;;;;;;;;;;2070898;28;20202;-59
2020/12/08 03:00:26;;;;;;;47.07;31.83;;;;;;;;;;2071510;28;20196;-58
2020/12/08 03:01:27;;;;;;;51.47;34.30;;;;;;;;;;2083114;23;20182;-57
2020/12/08 03:02:29;;;;;;;58.43;34.67;;;;;;;;;;2064731;28;20291;-56
2020/12/08 03:03:30;;;;;;;51.93;33.17;;;;;;;;;;2078309;28;20445;-55
2020/12/08 03:04:30;;;;;;;50.80;34.97;;;;;;;;;;2080876;28;20704;-56
2020/12/08 03:05:31;;;;;;;56.33;35.13;;;;;;;;;;2079357;28;20246;-57
2020/12/08 03:06:32;;;;;;;56.13;33.73;;;;;;;;;;2077753;28;20165;-54
2020/12/08 03:07:34;;;;;;;52.53;32.47;;;;;;;;;;2071219;28;20517;-55
2020/12/08 03:08:37;;;;;;;53.93;35.67;;;;;;;;;;2071973;28;20414;-57
2020/12/08 03:09:37;;;;;;;55.90;36.27;;;;;;;;;;2070529;28;20422;-56
2020/12/08 03:10:38;;;;;;;52.30;35.20;;;;;;;;;;2071220;28;20226;-57
2020/12/08 03:11:38;;;;;;;54.33;33.90;;;;;;;;;;2078597;28;20290;-54
2020/12/08 03:12:47;;;;;;;55.50;35.63;;;;;;;;;;2078082;28;20230;-54
2020/12/08 03:13:48;;;;;;;62.60;37.77;;;;;;;;;;2070042;28;20848;-58
2020/12/08 03:14:49;;;;;;;60.13;37.07;;;;;;;;;;2073871;28;20176;-57
2020/12/08 03:15:59;;;;;;;65.37;39.33;;;;;;;;;;2072162;28;20177;-54
2020/12/08 03:16:59;;;;;;;64.87;39.17;;;;;;;;;;2067156;28;20170;-58
2020/12/08 03:18:02;;;;;;;61.57;38.07;;;;;;;;;;2070793;28;20180;-57
2020/12/08 03:19:04;;;;;;;60.20;36.50;;;;;;;;;;2070437;28;20453;-57
2020/12/08 03:20:06;;;;;;;64.90;37.90;;;;;;;;;;2081254;28;20417;-55
2020/12/08 03:21:10;;;;;;;63.83;38.40;;;;;;;;;;2077781;28;20418;-57
2020/12/08 03:22:10;;;;;;;64.47;38.17;;;;;;;;;;2063008;28;20895;-55
2020/12/08 03:23:18;;;;;;;66.87;37.23;;;;;;;;;;2073385;28;20174;-52
2020/12/08 03:24:18;;;;;;;67.57;38.60;;;;;;;;;;2079953;28;20178;-55
2020/12/08 03:25:18;;;;;;;64.57;36.30;;;;;;;;;;2072119;28;20165;-52
2020/12/08 03:26:22;;;;;;;60.47;36.27;;;;;;;;;;2080196;28;20219;-54
2020/12/08 03:27:24;;;;;;;63.67;39.87;;;;;;;;;;2080416;28;20664;-56
2020/12/08 03:28:28;;;;;;;69.70;41.50;;;;;;;;;;2071993;28;20199;-58
2020/12/08 03:29:29;;;;;;;67.37;39.03;;;;;;;;;;2081173;28;20417;-60
2020/12/08 03:30:32;;;;;;;65.60;38.07;;;;;;;;;;2078450;28;20651;-57
2020/12/08 03:31:33;;;;;;;64.97;39.80;;;;;;;;;;2080414;28;20177;-55
2020/12/08 03:32:36;;;;;;;60.90;35.73;;;;;;;;;;2071420;28;20184;-54
2020/12/08 03:33:40;;;;;;;62.27;37.33;;;;;;;;;;2072148;28;20190;-54
2020/12/08 03:34:41;;;;;;;67.50;38.63;;;;;;;;;;2068722;28;20498;-52
2020/12/08 03:35:41;;;;;;;63.97;37.43;;;;;;;;;;2072405;28;20658;-53
2020/12/08 03:36:42;;;;;;;67.23;39.00;;;;;;;;;;2079479;28;20183;-55
2020/12/08 03:37:43;;;;;;;67.00;36.40;;;;;;;;;;2072396;28;20173;-53
2020/12/08 03:38:50;;;;;;;63.40;35.67;;;;;;;;;;2073054;28;20708;-52
2020/12/08 03:39:53;;;;;;;56.73;35.87;;;;;;;;;;2078060;28;20199;-57
2020/12/08 03:40:56;;;;;;;57.47;34.50;;;;;;;;;;2071216;28;20177;-52
2020/12/08 03:42:04;;;;;;;57.00;32.27;;;;;;;;;;2072854;28;20907;-52
2020/12/08 03:43:07;;;;;;;54.07;34.60;;;;;;;;;;2073468;28;20255;-52
2020/12/08 03:44:08;;;;;;;56.17;34.13;;;;;;;;;;2079396;28;20200;-53
2020/12/08 03:45:08;;;;;;;62.00;35.23;;;;;;;;;;2069778;28;20188;-55
2020/12/08 03:46:29;;;;;;;55.33;34.23;;;;;;;;;;2080100;28;20229;-55
2020/12/08 03:47:31;;;;;;;54.73;33.70;;;;;;;;;;2079856;28;20177;-53
2020/12/08 03:48:31;;;;;;;47.77;32.27;;;;;;;;;;2080845;28;20213;-52
2020/12/08 03:49:32;;;;;;;58.13;35.33;;;;;;;;;;2080342;28;20898;-52
2020/12/08 03:50:33;;;;;;;56.73;33.37;;;;;;;;;;2080919;28;20680;-52
2020/12/08 03:51:34;;;;;;;57.00;35.67;;;;;;;;;;2072269;28;20181;-57
2020/12/08 03:52:41;;;;;;;54.00;33.60;;;;;;;;;;2073042;28;20177;-54
2020/12/08 03:53:43;;;;;;;53.40;32.43;;;;;;;;;;2080845;28;20221;-54
2020/12/08 03:54:43;;;;;;;55.60;32.87;;;;;;;;;;2069987;28;20188;-54
2020/12/08 03:55:46;;;;;;;52.53;33.30;;;;;;;;;;2077525;28;20188;-60
2020/12/08 03:56:47;;;;;;;55.83;34.07;;;;;;;;;;2078714;28;20272;-53
2020/12/08 03:57:51;;;;;;;57.70;34.23;;;;;;;;;;2062724;28;20678;-54
2020/12/08 03:58:56;;;;;;;55.90;34.17;;;;;;;;;;2074727;28;20195;-53
2020/12/08 03:59:57;;;;;;;54.67;33.70;;;;;;;;;;2080785;28;20188;-56
2020/12/08 04:00:57;;;;;;;61.00;35.40;;;;;;;;;;2072497;28;20177;-56
2020/12/08 04:01:59;;;;;;;56.73;34.57;;;;;;;;;;2071846;28;20303;-52
2020/12/08 04:02:59;;;;;;;54.30;34.40;;;;;;;;;;2072511;28;20181;-55
2020/12/08 04:04:04;;;;;;;60.90;36.77;;;;;;;;;;2072129;28;20176;-54
2020/12/08 04:05:04;;;;;;;56.80;36.33;;;;;;;;;;2080073;28;20550;-54
2020/12/08 04:06:04;;;;;;;56.43;34.53;;;;;;;;;;2084763;28;20176;-54
2020/12/08 04:07:05;;;;;;;54.87;35.30;;;;;;;;;;2071630;28;20208;-56
2020/12/08 04:08:07;;;;;;;55.27;35.00;;;;;;;;;;2072650;28;20233;-57
2020/12/08 04:09:15;;;;;;;57.83;36.60;;;;;;;;;;2078915;28;20176;-53
2020/12/08 04:10:15;;;;;;;55.10;34.43;;;;;;;;;;2071954;28;20632;-54
2020/12/08 04:11:18;;;;;;;57.87;35.30;;;;;;;;;;2072249;28;20181;-53
2020/12/08 04:12:21;;;;;;;55.27;35.33;;;;;;;;;;2071662;28;20171;-53
2020/12/08 04:13:22;;;;;;;53.37;32.87;;;;;;;;;;2073296;28;20567;-55
2020/12/08 04:14:25;;;;;;;55.87;33.40;;;;;;;;;;2070469;28;20173;-56
2020/12/08 04:15:26;;;;;;;54.43;33.50;;;;;;;;;;2071678;28;20630;-53
2020/12/08 04:16:27;;;;;;;54.67;33.47;;;;;;;;;;2072095;28;20238;-56
2020/12/08 04:17:29;;;;;;;53.73;33.40;;;;;;;;;;2072376;28;20211;-55
2020/12/08 04:18:29;;;;;;;51.23;32.30;;;;;;;;;;2079287;28;20250;-54
2020/12/08 04:19:29;;;;;;;51.83;32.50;;;;;;;;;;2087440;28;20199;-55
2020/12/08 04:20:30;;;;;;;50.00;32.60;;;;;;;;;;2080122;28;20184;-56
2020/12/08 04:21:30;;;;;;;50.93;32.73;;;;;;;;;;2071815;28;20188;-54
2020/12/08 04:22:44;;;;;;;54.30;33.53;;;;;;;;;;2071052;28;20521;-55
2020/12/08 04:23:49;;;;;;;51.13;32.80;;;;;;;;;;2072010;28;20212;-53
2020/12/08 04:24:50;;;;;;;48.87;32.33;;;;;;;;;;2078844;28;20176;-51
2020/12/08 04:25:50;;;;;;;50.80;32.63;;;;;;;;;;2079343;28;20176;-53
2020/12/08 04:26:54;;;;;;;55.20;32.83;;;;;;;;;;2072350;28;20169;-54
2020/12/08 04:28:04;;;;;;;48.70;31.83;;;;;;;;;;2071006;28;20176;-54
2020/12/08 04:29:04;;;;;;;52.47;33.33;;;;;;;;;;2072651;28;20586;-54
2020/12/08 04:30:08;;;;;;;48.90;32.50;;;;;;;;;;2072378;28;20628;-55
2020/12/08 04:31:14;;;;;;;48.93;33.60;;;;;;;;;;2078337;28;20406;-52
2020/12/08 04:32:15;;;;;;;50.53;32.57;;;;;;;;;;2079959;28;20196;-53
2020/12/08 04:33:15;;;;;;;45.30;29.53;;;;;;;;;;2088478;28;20195;-55
2020/12/08 04:34:15;;;;;;;49.27;31.67;;;;;;;;;;2087070;28;20175;-54
2020/12/08 04:35:15;;;;;;;49.53;31.43;;;;;;;;;;2088902;28;20176;-52
2020/12/08 04:36:19;;;;;;;47.07;30.53;;;;;;;;;;2088527;28;20191;-53
2020/12/08 04:37:20;;;;;;;45.33;29.57;;;;;;;;;;2079117;28;20180;-53
2020/12/08 04:38:20;;;;;;;44.43;29.70;;;;;;;;;;2080642;28;20687;-54
2020/12/08 04:39:20;;;;;;;41.57;28.70;;;;;;;;;;2087002;28;20282;-53
2020/12/08 04:40:21;;;;;;;40.57;28.30;;;;;;;;;;2085251;28;20195;-52
2020/12/08 04:41:22;;;;;;;42.23;28.03;;;;;;;;;;2080246;28;20602;-52
2020/12/08 04:42:22;;;;;;;40.77;28.83;;;;;;;;;;2079632;28;20211;-57
2020/12/08 04:43:22;;;;;;;43.03;28.20;;;;;;;;;;2088535;28;20371;-54
2020/12/08 04:44:23;;;;;;;46.43;30.13;;;;;;;;;;2087637;28;20271;-54
2020/12/08 04:45:23;;;;;;;45.93;29.13;;;;;;;;;;2089173;28;20705;-50
2020/12/08 04:46:26;;;;;;;48.20;31.40;;;;;;;;;;2088947;28;20624;-54
2020/12/08 04:47:26;;;;;;;47.47;30.67;;;;;;;;;;2077838;28;20639;-52
2020/12/08 04:48:27;;;;;;;44.97;29.50;;;;;;;;;;2080138;28;20180;-52
2020/12/08 04:49:27;;;;;;;48.07;29.87;;;;;;;;;;2088324;28;20695;-52
2020/12/08 04:50:27;;;;;;;42.07;28.20;;;;;;;;;;2086243;28;20191;-51
2020/12/08 04:51:27;;;;;;;45.57;30.40;;;;;;;;;;2089258;28;20650;-52
2020/12/08 04:52:28;;;;;;;43.23;28.50;;;;;;;;;;2088736;28;20190;-54
2020/12/08 04:53:28;;;;;;;45.00;28.77;;;;;;;;;;2087270;28;20236;-54
2020/12/08 04:54:28;;;;;;;43.73;29.07;;;;;;;;;;2079847;28;20183;-52
2020/12/08 04:55:28;;;;;;;42.67;28.40;;;;;;;;;;2080160;28;20303;-51
2020/12/08 04:56:29;;;;;;;43.27;28.10;;;;;;;;;;2085936;28;20183;-49
2020/12/08 04:57:29;;;;;;;43.87;28.70;;;;;;;;;;2088049;28;20164;-55
2020/12/08 04:58:30;;;;;;;41.13;27.93;;;;;;;;;;2086004;28;20191;-54
2020/12/08 04:59:30;;;;;;;40.07;27.77;;;;;;;;;;2087729;28;20199;-55
2020/12/08 05:00:38;;;;;;;40.40;26.57;;;;;;;;;;2088532;28;20202;-51
2020/12/08 05:01:38;;;;;;;42.03;28.40;;;;;;;;;;2089155;28;20256;-51
2020/12/08 05:02:48;;;;;;;37.43;27.23;;;;;;;;;;2086697;28;20601;-54
2020/12/08 05:03:54;;;;;;;42.70;29.30;;;;;;;;;;2087157;28;20182;-54
2020/12/08 05:04:55;;;;;;;40.90;27.30;;;;;;;;;;2079900;28;20188;-56
2020/12/08 05:05:55;;;;;;;41.77;27.80;;;;;;;;;;2080083;28;20191;-50
2020/12/08 05:07:05;;;;;;;41.70;26.47;;;;;;;;;;2087813;28;20175;-52
2020/12/08 05:08:09;;;;;;;39.27;26.90;;;;;;;;;;2085337;28;20194;-53
2020/12/08 05:09:10;;;;;;;43.57;27.63;;;;;;;;;;2088125;28;20190;-53
2020/12/08 05:10:10;;;;;;;43.63;28.10;;;;;;;;;;2087421;28;20159;-56
2020/12/08 05:11:10;;;;;;;40.43;27.43;;;;;;;;;;2089323;28;20632;-51
2020/12/08 05:12:11;;;;;;;40.43;28.27;;;;;;;;;;2087788;28;20234;-52
2020/12/08 05:13:15;;;;;;;43.40;28.57;;;;;;;;;;2087728;28;20181;-55
2020/12/08 05:14:15;;;;;;;41.03;27.27;;;;;;;;;;2089207;28;20207;-54
2020/12/08 05:15:16;;;;;;;40.70;28.63;;;;;;;;;;2079617;28;20897;-54
2020/12/08 05:16:19;;;;;;;39.80;27.83;;;;;;;;;;2072398;28;20173;-52
2020/12/08 05:17:20;;;;;;;42.57;28.57;;;;;;;;;;2078131;28;20197;-55
2020/12/08 05:18:22;;;;;;;42.20;27.50;;;;;;;;;;2084263;28;20327;-54
2020/12/08 05:19:22;;;;;;;43.63;26.33;;;;;;;;;;2087449;28;20226;-52
2020/12/08 05:20:22;;;;;;;38.17;26.53;;;;;;;;;;2087364;28;20167;-53
2020/12/08 05:21:23;;;;;;;38.67;26.97;;;;;;;;;;2087351;28;20202;-54
2020/12/08 05:22:23;;;;;;;36.97;25.47;;;;;;;;;;2089031;28;20182;-53
2020/12/08 05:23:23;;;;;;;37.93;26.60;;;;;;;;;;2080390;28;20259;-52
2020/12/08 05:24:24;;;;;;;38.23;27.00;;;;;;;;;;2080464;28;20184;-52
2020/12/08 05:25:27;;;;;;;42.87;27.27;;;;;;;;;;2083947;28;20661;-54
2020/12/08 05:26:28;;;;;;;40.37;27.10;;;;;;;;;;2088019;28;20614;-55
2020/12/08 05:27:28;;;;;;;37.20;26.73;;;;;;;;;;2079234;28;20192;-54
2020/12/08 05:28:29;;;;;;;40.30;25.43;;;;;;;;;;2078723;28;20168;-53
2020/12/08 05:29:30;;;;;;;34.90;25.53;;;;;;;;;;2089027;28;20209;-53
2020/12/08 05:30:30;;;;;;;38.97;25.97;;;;;;;;;;2087251;28;20168;-57
2020/12/08 05:31:31;;;;;;;38.23;26.83;;;;;;;;;;2080030;28;20219;-55
2020/12/08 05:32:34;;;;;;;39.83;25.80;;;;;;;;;;2080122;28;20173;-55
2020/12/08 05:33:36;;;;;;;35.67;24.53;;;;;;;;;;2089060;28;20278;-53
2020/12/08 05:34:37;;;;;;;34.77;23.97;;;;;;;;;;2090825;28;20575;-51
2020/12/08 05:35:39;;;;;;;34.17;24.53;;;;;;;;;;2080958;28;20184;-52
2020/12/08 05:36:41;;;;;;;36.53;24.90;;;;;;;;;;2082165;28;20184;-51
2020/12/08 05:37:42;;;;;;;33.37;23.60;;;;;;;;;;2087593;28;20326;-50
2020/12/08 05:38:45;;;;;;;33.27;24.10;;;;;;;;;;2088222;28;20189;-50
2020/12/08 05:39:46;;;;;;;35.40;24.00;;;;;;;;;;2089517;28;20203;-51
2020/12/08 05:40:50;;;;;;;35.83;24.13;;;;;;;;;;2088253;28;20201;-56
2020/12/08 05:41:50;;;;;;;32.37;24.13;;;;;;;;;;2090478;28;20214;-51
2020/12/08 05:42:52;;;;;;;33.07;24.37;;;;;;;;;;2088266;28;20670;-54
2020/12/08 05:44:01;;;;;;;33.50;24.13;;;;;;;;;;2088251;28;20777;-50
2020/12/08 05:45:02;;;;;;;39.83;25.90;;;;;;;;;;2079393;28;20168;-52
2020/12/08 05:46:04;;;;;;;35.73;24.70;;;;;;;;;;2080990;28;20254;-51
2020/12/08 05:47:05;;;;;;;30.90;23.33;;;;;;;;;;2088379;28;20178;-51
2020/12/08 05:48:05;;;;;;;32.50;24.10;;;;;;;;;;2089114;28;20198;-52
2020/12/08 05:49:06;;;;;;;35.00;24.70;;;;;;;;;;2081860;28;20168;-55
2020/12/08 05:50:06;;;;;;;33.77;24.33;;;;;;;;;;2081287;28;20173;-53
2020/12/08 05:51:07;;;;;;;33.03;23.07;;;;;;;;;;2090699;28;20174;-52
2020/12/08 05:52:07;;;;;;;32.00;22.70;;;;;;;;;;2081387;28;20598;-52
2020/12/08 05:53:10;;;;;;;36.07;24.60;;;;;;;;;;2081905;28;20176;-53
2020/12/08 05:54:14;;;;;;;33.17;23.87;;;;;;;;;;2088735;28;20182;-51
2020/12/08 05:55:16;;;;;;;32.70;23.67;;;;;;;;;;2089182;28;20171;-53
2020/12/08 05:56:16;;;;;;;31.37;23.17;;;;;;;;;;2088062;28;20646;-52
2020/12/08 05:57:16;;;;;;;33.93;24.23;;;;;;;;;;2089774;28;20179;-55
2020/12/08 05:58:16;;;;;;;33.53;23.50;;;;;;;;;;2088151;28;20180;-55